createdAt,value
2023-05-13T00:01:11.121Z,18.13
2023-05-13T00:03:38.216Z,17.45
2023-05-13T00:06:05.122Z,17.20
2023-05-13T00:08:32.176Z,17.23
2023-05-13T00:10:58.789Z,17.90
2023-05-13T00:13:25.879Z,17.77
2023-05-13T00:15:52.807Z,17.67
2023-05-13T00:18:19.964Z,18.17
2023-05-13T00:20:46.597Z,19.10
2023-05-13T00:23:14.741Z,19.17
2023-05-13T00:25:41.964Z,18.73
2023-05-13T00:28:09.042Z,19.55
2023-05-13T00:30:36.927Z,20.00
2023-05-13T00:33:03.845Z,21.15
2023-05-13T00:35:31.085Z,21.20
2023-05-13T00:37:57.738Z,19.73
2023-05-13T00:40:25.266Z,20.60
2023-05-13T00:42:52.202Z,19.35
2023-05-13T00:45:20.381Z,20.08
2023-05-13T00:47:48.592Z,20.45
2023-05-13T00:50:16.314Z,19.65
2023-05-13T00:52:43.374Z,19.80
2023-05-13T00:55:11.234Z,20.10
2023-05-13T00:57:39.981Z,18.85
2023-05-13T01:00:08.331Z,19.90
2023-05-13T01:03:02.010Z,18.70
2023-05-13T01:05:57.673Z,18.95
2023-05-13T01:08:29.179Z,19.40
2023-05-13T01:11:09.849Z,19.70
2023-05-13T01:13:42.950Z,19.88
2023-05-13T01:16:27.164Z,19.25
2023-05-13T01:18:58.459Z,18.35
2023-05-13T01:21:27.206Z,17.73
2023-05-13T01:23:54.602Z,17.88
2023-05-13T01:26:24.359Z,17.58
2023-05-13T01:28:51.404Z,17.20
2023-05-13T01:31:21.310Z,19.38
2023-05-13T01:33:49.394Z,18.75
2023-05-13T01:36:17.604Z,20.17
2023-05-13T01:38:44.880Z,19.40
2023-05-13T01:41:12.214Z,20.40
2023-05-13T01:43:38.959Z,19.95
2023-05-13T01:46:12.641Z,20.15
2023-05-13T01:48:39.499Z,20.35
2023-05-13T01:51:07.200Z,20.52
2023-05-13T01:53:34.626Z,19.40
2023-05-13T01:56:01.374Z,20.15
2023-05-13T01:58:29.100Z,19.77
2023-05-13T02:00:55.814Z,19.75
2023-05-13T02:03:23.164Z,19.23
2023-05-13T02:05:49.896Z,18.48
2023-05-13T02:08:17.907Z,19.17
2023-05-13T02:10:44.589Z,17.30
2023-05-13T02:13:12.331Z,18.33
2023-05-13T02:15:39.270Z,16.92
2023-05-13T02:18:06.561Z,16.63
2023-05-13T02:20:33.249Z,16.10
2023-05-13T02:23:01.093Z,17.30
2023-05-13T02:25:28.019Z,15.82
2023-05-13T02:27:55.350Z,17.60
2023-05-13T02:30:26.744Z,17.30
2023-05-13T02:32:54.855Z,18.63
2023-05-13T02:35:22.364Z,18.27
2023-05-13T02:37:49.344Z,17.98
2023-05-13T02:40:17.243Z,17.17
2023-05-13T02:42:45.812Z,17.95
2023-05-13T02:45:14.518Z,17.25
2023-05-13T02:47:45.070Z,16.67
2023-05-13T02:50:12.765Z,17.15
2023-05-13T02:52:40.425Z,15.68
2023-05-13T02:55:09.527Z,17.50
2023-05-13T02:57:40.047Z,17.02
2023-05-13T03:00:08.207Z,17.25
2023-05-13T03:02:36.194Z,17.58
2023-05-13T03:05:04.039Z,18.30
2023-05-13T03:07:30.672Z,18.30
2023-05-13T03:09:58.791Z,17.45
2023-05-13T03:12:25.493Z,17.38
2023-05-13T03:14:52.745Z,17.15
2023-05-13T03:17:19.462Z,17.73
2023-05-13T03:19:47.219Z,18.95
2023-05-13T03:22:14.445Z,18.75
2023-05-13T03:24:42.992Z,18.25
2023-05-13T03:27:10.116Z,18.75
2023-05-13T03:29:39.151Z,18.95
2023-05-13T03:32:06.605Z,18.20
2023-05-13T03:34:36.489Z,18.88
2023-05-13T03:37:04.096Z,17.98
2023-05-13T03:39:31.904Z,18.20
2023-05-13T03:41:58.991Z,18.35
2023-05-13T03:44:26.049Z,17.92
2023-05-13T03:46:53.487Z,18.33
2023-05-13T03:49:20.179Z,19.23
2023-05-13T03:51:47.437Z,18.73
2023-05-13T03:54:14.228Z,19.05
2023-05-13T03:56:41.509Z,18.75
2023-05-13T03:59:08.130Z,19.33
2023-05-13T04:01:36.555Z,19.65
2023-05-13T04:04:03.319Z,18.70
2023-05-13T04:06:32.137Z,18.40
2023-05-13T04:08:58.811Z,17.98
2023-05-13T04:11:26.186Z,17.73
2023-05-13T04:13:54.485Z,16.55
2023-05-13T04:16:21.856Z,15.07
2023-05-13T04:18:48.577Z,15.25
2023-05-13T04:21:16.010Z,14.95
2023-05-13T04:23:42.684Z,14.05
2023-05-13T04:26:09.972Z,13.00
2023-05-13T04:28:36.651Z,13.10
2023-05-13T04:31:03.871Z,13.23
2023-05-13T04:33:34.501Z,13.93
2023-05-13T04:36:01.243Z,13.80
2023-05-13T04:38:28.556Z,13.50
2023-05-13T04:40:55.262Z,14.10
2023-05-13T04:43:30.650Z,13.52
2023-05-13T04:45:59.105Z,13.63
2023-05-13T04:48:28.216Z,13.60
2023-05-13T04:50:58.165Z,13.57
2023-05-13T04:53:25.818Z,13.05
2023-05-13T04:56:00.426Z,12.68
2023-05-13T04:58:29.161Z,12.35
2023-05-13T05:00:57.214Z,12.02
2023-05-13T05:03:25.058Z,11.93
2023-05-13T05:05:51.849Z,11.75
2023-05-13T05:08:19.510Z,12.52
2023-05-13T05:10:47.817Z,11.07
2023-05-13T05:13:15.993Z,12.30
2023-05-13T05:15:43.823Z,12.77
2023-05-13T05:18:11.951Z,11.10
2023-05-13T05:20:39.643Z,10.10
2023-05-13T05:23:12.777Z,9.02
2023-05-13T05:25:39.478Z,8.75
2023-05-13T05:28:06.856Z,7.53
2023-05-13T05:30:39.235Z,8.68
2023-05-13T05:33:11.549Z,8.13
2023-05-13T05:35:40.169Z,7.68
2023-05-13T05:38:11.549Z,7.82
2023-05-13T05:40:41.976Z,7.05
2023-05-13T05:43:11.266Z,7.30
2023-05-13T05:45:39.212Z,7.13
2023-05-13T05:48:08.382Z,7.07
2023-05-13T05:50:36.434Z,7.97
2023-05-13T05:53:07.355Z,6.70
2023-05-13T05:55:36.758Z,7.32
2023-05-13T05:58:05.765Z,6.57
2023-05-13T06:00:34.682Z,6.40
2023-05-13T06:03:02.267Z,7.05
2023-05-13T06:05:28.984Z,7.60
2023-05-13T06:07:56.717Z,7.28
2023-05-13T06:10:23.481Z,7.72
2023-05-13T06:12:51.620Z,7.18
2023-05-13T06:15:18.346Z,7.47
2023-05-13T06:17:45.643Z,7.00
2023-05-13T06:20:12.619Z,7.03
2023-05-13T06:22:41.321Z,6.95
2023-05-13T06:25:08.412Z,7.82
2023-05-13T06:27:36.979Z,6.95
2023-05-13T06:30:04.058Z,7.40
2023-05-13T06:32:31.319Z,7.55
2023-05-13T06:34:58.103Z,7.20
2023-05-13T06:37:25.780Z,6.78
2023-05-13T06:39:52.506Z,8.10
2023-05-13T06:42:19.717Z,7.18
2023-05-13T06:44:54.580Z,8.23
2023-05-13T06:47:27.503Z,8.07
2023-05-13T06:49:54.197Z,7.55
2023-05-13T06:52:20.797Z,7.75
2023-05-13T06:54:48.449Z,7.90
2023-05-13T06:57:15.037Z,8.25
2023-05-13T06:59:42.397Z,8.38
2023-05-13T07:02:10.160Z,8.40
2023-05-13T07:04:37.288Z,8.25
2023-05-13T07:07:04.381Z,8.07
2023-05-13T07:09:31.603Z,8.75
2023-05-13T07:11:58.529Z,8.10
2023-05-13T07:14:26.034Z,8.38
2023-05-13T07:16:53.431Z,8.48
2023-05-13T07:19:20.207Z,8.30
2023-05-13T07:21:47.456Z,8.52
2023-05-13T07:24:14.481Z,8.48
2023-05-13T07:26:42.262Z,8.98
2023-05-13T07:29:08.934Z,8.10
2023-05-13T07:31:35.911Z,8.13
2023-05-13T07:34:03.648Z,7.93
2023-05-13T07:36:30.587Z,7.88
2023-05-13T07:38:58.044Z,8.35
2023-05-13T07:41:24.741Z,8.50
2023-05-13T07:43:51.953Z,7.65
2023-05-13T07:46:18.546Z,8.88
2023-05-13T07:48:46.109Z,8.32
2023-05-13T07:51:12.710Z,8.65
2023-05-13T07:53:40.035Z,7.93
2023-05-13T07:56:07.734Z,8.05
2023-05-13T07:58:35.033Z,8.35
2023-05-13T08:01:01.750Z,7.75
2023-05-13T08:03:29.149Z,7.50
2023-05-13T08:05:55.907Z,7.65
2023-05-13T08:08:23.235Z,8.48
2023-05-13T08:10:49.856Z,8.32
2023-05-13T08:13:17.084Z,7.88
2023-05-13T08:15:43.762Z,8.70
2023-05-13T08:18:11.145Z,9.07
2023-05-13T08:20:37.941Z,8.18
2023-05-13T08:23:05.161Z,8.23
2023-05-13T08:25:31.788Z,9.18
2023-05-13T08:27:59.173Z,9.60
2023-05-13T08:30:25.906Z,9.35
2023-05-13T08:32:53.386Z,9.10
2023-05-13T08:35:20.287Z,9.25
2023-05-13T08:37:47.779Z,8.82
2023-05-13T08:40:15.145Z,9.40
2023-05-13T08:42:43.413Z,9.00
2023-05-13T08:45:11.537Z,8.93
2023-05-13T08:47:59.837Z,8.48
2023-05-13T08:50:27.474Z,8.75
2023-05-13T08:52:56.056Z,8.10
2023-05-13T08:55:24.109Z,8.20
2023-05-13T08:57:52.050Z,8.15
2023-05-13T09:00:21.395Z,8.48
2023-05-13T09:02:49.858Z,7.93
2023-05-13T09:05:18.337Z,7.40
2023-05-13T09:07:45.456Z,8.25
2023-05-13T09:10:12.690Z,8.55
2023-05-13T09:12:46.238Z,7.43
2023-05-13T09:15:19.614Z,8.85
2023-05-13T09:18:05.307Z,8.68
2023-05-13T09:20:34.086Z,8.40
2023-05-13T09:23:09.319Z,7.90
2023-05-13T09:25:37.612Z,7.88
2023-05-13T09:28:07.780Z,8.48
2023-05-13T09:30:36.739Z,7.70
2023-05-13T09:33:15.281Z,8.45
2023-05-13T09:35:52.480Z,7.50
2023-05-13T09:38:24.965Z,7.82
2023-05-13T09:40:52.260Z,7.57
2023-05-13T09:43:21.834Z,7.22
2023-05-13T09:45:52.456Z,7.28
2023-05-13T09:48:23.075Z,7.15
2023-05-13T09:50:51.114Z,6.68
2023-05-13T09:53:18.977Z,6.30
2023-05-13T09:55:51.109Z,6.03
2023-05-13T09:58:20.132Z,6.63
2023-05-13T10:00:48.116Z,6.05
2023-05-13T10:03:15.936Z,6.28
2023-05-13T10:05:43.846Z,5.88
2023-05-13T10:08:13.076Z,5.43
2023-05-13T10:10:41.653Z,5.30
2023-05-13T10:13:13.402Z,5.75
2023-05-13T10:15:51.496Z,5.68
2023-05-13T10:18:19.854Z,5.75
2023-05-13T10:20:47.002Z,4.95
2023-05-13T10:23:15.415Z,4.82
2023-05-13T10:25:43.619Z,5.15
2023-05-13T10:28:10.670Z,4.82
2023-05-13T10:30:39.250Z,4.57
2023-05-13T10:33:06.158Z,4.78
2023-05-13T10:35:38.532Z,5.05
2023-05-13T10:38:16.278Z,4.43
2023-05-13T10:41:01.418Z,4.88
2023-05-13T10:43:30.526Z,5.10
2023-05-13T10:46:00.189Z,4.63
2023-05-13T10:48:38.071Z,4.07
2023-05-13T10:51:08.030Z,4.15
2023-05-13T10:53:55.305Z,4.03
2023-05-13T10:56:28.173Z,4.20
2023-05-13T10:58:59.939Z,3.88
2023-05-13T11:01:43.923Z,4.30
2023-05-13T11:04:20.323Z,3.95
2023-05-13T11:06:50.777Z,3.50
2023-05-13T11:09:20.747Z,3.95
2023-05-13T11:11:49.083Z,3.80
2023-05-13T11:14:30.554Z,3.60
2023-05-13T11:17:00.231Z,3.95
2023-05-13T11:19:47.936Z,3.90
2023-05-13T11:22:18.751Z,3.38
2023-05-13T11:25:02.797Z,3.75
2023-05-13T11:27:37.587Z,3.40
2023-05-13T11:30:21.906Z,3.58
2023-05-13T11:32:52.206Z,3.90
2023-05-13T11:35:30.588Z,4.10
2023-05-13T11:38:00.265Z,3.85
2023-05-13T11:40:33.634Z,3.70
2023-05-13T11:43:01.218Z,3.65
2023-05-13T11:45:30.108Z,3.17
2023-05-13T11:47:57.547Z,3.42
2023-05-13T11:50:30.597Z,3.30
2023-05-13T11:52:59.177Z,3.22
2023-05-13T11:55:31.905Z,3.50
2023-05-13T11:57:59.355Z,3.90
2023-05-13T12:00:34.755Z,3.53
2023-05-13T12:03:11.589Z,3.85
2023-05-13T12:05:39.845Z,3.55
2023-05-13T12:08:10.113Z,3.58
2023-05-13T12:10:43.969Z,3.63
2023-05-13T12:13:10.970Z,3.75
2023-05-13T12:15:38.385Z,3.50
2023-05-13T12:18:05.381Z,3.88
2023-05-13T12:20:33.774Z,3.67
2023-05-13T12:23:01.412Z,3.20
2023-05-13T12:25:42.089Z,3.30
2023-05-13T12:28:22.808Z,3.50
2023-05-13T12:30:50.680Z,3.25
2023-05-13T12:33:38.676Z,3.40
2023-05-13T12:36:35.913Z,3.40
2023-05-13T12:39:07.035Z,3.33
2023-05-13T12:41:36.427Z,2.95
2023-05-13T12:44:07.442Z,3.45
2023-05-13T12:46:35.554Z,3.05
2023-05-13T12:49:04.158Z,2.75
2023-05-13T12:51:31.865Z,3.10
2023-05-13T12:53:58.589Z,3.28
2023-05-13T12:56:26.192Z,3.45
2023-05-13T12:58:54.001Z,3.40
2023-05-13T13:01:21.585Z,3.28
2023-05-13T13:03:48.375Z,2.85
2023-05-13T13:06:15.976Z,3.95
2023-05-13T13:08:42.688Z,3.15
2023-05-13T13:11:10.591Z,3.55
2023-05-13T13:13:39.239Z,3.03
2023-05-13T13:16:07.554Z,3.25
2023-05-13T13:18:34.208Z,3.30
2023-05-13T13:21:01.497Z,3.20
2023-05-13T13:23:28.436Z,3.28
2023-05-13T13:25:55.828Z,4.07
2023-05-13T13:28:22.790Z,3.33
2023-05-13T13:30:49.545Z,3.60
2023-05-13T13:33:17.039Z,3.13
2023-05-13T13:35:45.399Z,3.58
2023-05-13T13:38:13.417Z,3.33
2023-05-13T13:40:40.281Z,3.13
2023-05-13T13:43:08.412Z,3.40
2023-05-13T13:45:35.283Z,3.13
2023-05-13T13:48:03.358Z,3.65
2023-05-13T13:50:30.160Z,3.35
2023-05-13T13:52:57.438Z,3.95
2023-05-13T13:55:24.390Z,3.13
2023-05-13T13:57:52.352Z,3.33
2023-05-13T14:00:19.530Z,3.65
2023-05-13T14:02:46.992Z,3.28
2023-05-13T14:05:13.829Z,3.30
2023-05-13T14:07:41.335Z,4.90
2023-05-13T14:10:08.822Z,3.38
2023-05-13T14:12:36.554Z,3.25
2023-05-13T14:15:03.634Z,3.08
2023-05-13T14:17:32.512Z,3.50
2023-05-13T14:19:59.130Z,3.10
2023-05-13T14:22:26.502Z,3.63
2023-05-13T14:24:53.238Z,3.30
2023-05-13T14:27:21.875Z,3.47
2023-05-13T14:29:48.954Z,3.92
2023-05-13T14:32:16.439Z,3.42
2023-05-13T14:34:43.119Z,2.88
2023-05-13T14:37:10.111Z,2.83
2023-05-13T14:39:36.889Z,3.08
2023-05-13T14:42:04.546Z,3.40
2023-05-13T14:44:31.912Z,3.47
2023-05-13T14:46:58.915Z,2.83
2023-05-13T14:49:26.231Z,3.25
2023-05-13T14:51:52.898Z,3.47
2023-05-13T14:54:20.220Z,2.80
2023-05-13T14:56:47.019Z,3.58
2023-05-13T14:59:13.979Z,3.53
2023-05-13T15:01:40.771Z,3.70
2023-05-13T15:04:08.016Z,3.70
2023-05-13T15:06:36.417Z,3.55
2023-05-13T15:09:04.032Z,3.42
2023-05-13T15:11:30.751Z,3.25
2023-05-13T15:13:57.996Z,4.15
2023-05-13T15:16:24.707Z,4.03
2023-05-13T15:18:52.004Z,4.47
2023-05-13T15:21:18.620Z,4.70
2023-05-13T15:23:45.858Z,5.40
2023-05-13T15:26:12.626Z,4.72
2023-05-13T15:28:39.937Z,4.32
2023-05-13T15:31:06.753Z,4.35
2023-05-13T15:33:34.148Z,5.00
2023-05-13T15:36:01.308Z,4.88
2023-05-13T15:38:28.672Z,4.53
2023-05-13T15:40:55.378Z,5.10
2023-05-13T15:43:22.812Z,5.90
2023-05-13T15:45:50.033Z,5.75
2023-05-13T15:48:17.915Z,5.32
2023-05-13T15:50:45.273Z,3.47
2023-05-13T15:53:11.876Z,3.70
2023-05-13T15:55:39.710Z,3.75
2023-05-13T15:58:06.933Z,3.13
2023-05-13T16:00:34.362Z,3.13
2023-05-13T16:03:01.475Z,3.08
2023-05-13T16:05:28.957Z,2.92
2023-05-13T16:07:57.062Z,2.50
2023-05-13T16:10:24.404Z,2.90
2023-05-13T16:12:51.484Z,3.78
2023-05-13T16:15:18.751Z,4.03
2023-05-13T16:17:45.499Z,4.82
2023-05-13T16:20:13.614Z,3.72
2023-05-13T16:22:40.400Z,4.47
2023-05-13T16:25:09.218Z,4.25
2023-05-13T16:27:36.864Z,4.28
2023-05-13T16:32:56.002Z,5.32
2023-05-13T16:35:23.041Z,4.93
2023-05-13T16:37:50.728Z,5.22
2023-05-13T16:40:18.014Z,6.75
2023-05-13T16:42:45.078Z,6.22
2023-05-13T16:45:12.752Z,6.03
2023-05-13T16:47:39.414Z,6.65
2023-05-13T16:50:08.786Z,6.15
2023-05-13T16:52:35.664Z,6.68
2023-05-13T16:55:03.261Z,6.75
2023-05-13T16:57:29.928Z,6.50
2023-05-13T16:59:57.283Z,6.00
2023-05-13T17:02:24.083Z,6.32
2023-05-13T17:04:51.578Z,5.80
2023-05-13T17:07:18.183Z,5.82
2023-05-13T17:09:45.682Z,6.18
2023-05-13T17:12:12.363Z,6.22
2023-05-13T17:14:40.022Z,6.32
2023-05-13T17:17:06.861Z,7.38
2023-05-13T17:19:34.277Z,7.80
2023-05-13T17:22:01.072Z,7.57
2023-05-13T17:24:29.706Z,7.82
2023-05-13T17:26:56.580Z,7.93
2023-05-13T17:29:25.796Z,7.75
2023-05-13T17:31:52.977Z,7.93
2023-05-13T17:34:20.588Z,7.95
2023-05-13T17:36:49.968Z,7.57
2023-05-13T17:39:17.585Z,9.55
2023-05-13T17:41:44.212Z,8.30
2023-05-13T17:44:11.627Z,8.68
2023-05-13T17:46:38.228Z,11.35
2023-05-13T17:49:05.613Z,10.02
2023-05-13T17:51:32.320Z,9.45
2023-05-13T17:53:59.551Z,8.40
2023-05-13T17:56:26.570Z,8.85
2023-05-13T17:58:53.884Z,8.07
2023-05-13T18:01:21.581Z,9.25
2023-05-13T18:03:49.045Z,8.10
2023-05-13T18:06:15.929Z,7.15
2023-05-13T18:08:43.256Z,8.30
2023-05-13T18:11:10.014Z,10.48
2023-05-13T18:13:37.470Z,9.43
2023-05-13T18:16:05.826Z,8.38
2023-05-13T18:18:33.168Z,7.85
2023-05-13T18:21:00.325Z,6.90
2023-05-13T18:23:27.553Z,6.88
2023-05-13T18:25:56.172Z,6.43
2023-05-13T18:28:24.230Z,7.30
2023-05-13T18:30:51.031Z,7.25
2023-05-13T18:33:20.393Z,6.50
2023-05-13T18:35:47.191Z,6.68
2023-05-13T18:38:14.426Z,8.15
2023-05-13T18:40:41.077Z,8.30
2023-05-13T18:43:08.323Z,7.88
2023-05-13T18:45:35.151Z,7.90
2023-05-13T18:48:02.485Z,7.35
2023-05-13T18:50:29.175Z,8.15
2023-05-13T18:52:56.558Z,7.05
2023-05-13T18:55:23.175Z,8.25
2023-05-13T18:57:50.990Z,8.63
2023-05-13T19:00:18.352Z,9.05
2023-05-13T19:02:45.679Z,9.45
2023-05-13T19:05:12.495Z,9.43
2023-05-13T19:07:39.748Z,9.95
2023-05-13T19:10:06.955Z,10.15
2023-05-13T19:12:34.262Z,10.15
2023-05-13T19:15:00.985Z,10.02
2023-05-13T19:17:28.410Z,10.23
2023-05-13T19:19:55.205Z,10.00
2023-05-13T19:22:22.494Z,9.05
2023-05-13T19:24:49.164Z,11.07
2023-05-13T19:27:16.447Z,10.48
2023-05-13T19:29:43.097Z,11.27
2023-05-13T19:32:10.316Z,11.48
2023-05-13T19:34:36.914Z,12.30
2023-05-13T19:37:05.345Z,12.77
2023-05-13T19:39:32.581Z,11.82
2023-05-13T19:41:59.397Z,11.38
2023-05-13T19:44:28.197Z,13.30
2023-05-13T19:46:55.379Z,15.50
2023-05-13T19:49:22.886Z,14.95
2023-05-13T19:51:49.540Z,14.90
2023-05-13T19:54:16.939Z,14.77
2023-05-13T19:56:43.576Z,14.75
2023-05-13T19:59:10.819Z,15.02
2023-05-13T20:01:37.755Z,14.57
2023-05-13T20:04:05.338Z,15.70
2023-05-13T20:06:32.515Z,14.30
2023-05-13T20:09:01.033Z,15.25
2023-05-13T20:11:27.977Z,14.30
2023-05-13T20:13:56.014Z,14.05
2023-05-13T20:16:23.346Z,14.32
2023-05-13T20:18:51.124Z,15.43
2023-05-13T20:21:17.865Z,16.48
2023-05-13T20:23:45.068Z,16.25
2023-05-13T20:26:11.690Z,16.50
2023-05-13T20:28:38.937Z,17.38
2023-05-13T20:31:05.664Z,16.23
2023-05-13T20:33:33.163Z,15.32
2023-05-13T20:35:59.761Z,15.50
2023-05-13T20:38:27.455Z,16.67
2023-05-13T20:40:54.345Z,16.90
2023-05-13T20:43:21.565Z,15.55
2023-05-13T20:45:48.606Z,15.50
2023-05-13T20:48:15.584Z,15.65
2023-05-13T20:50:42.224Z,15.27
2023-05-13T20:53:09.481Z,15.07
2023-05-13T20:55:37.297Z,15.98
2023-05-13T20:58:04.540Z,15.85
2023-05-13T21:00:31.227Z,15.80
2023-05-13T21:02:58.371Z,15.38
2023-05-13T21:05:25.983Z,14.95
2023-05-13T21:07:52.692Z,16.17
2023-05-13T21:10:20.034Z,15.80
2023-05-13T21:12:47.977Z,15.63
2023-05-13T21:15:15.451Z,16.27
2023-05-13T21:17:42.194Z,15.45
2023-05-13T21:20:11.559Z,15.18
2023-05-13T21:22:38.264Z,16.38
2023-05-13T21:25:06.835Z,16.88
2023-05-13T21:27:33.572Z,17.85
2023-05-13T21:30:00.817Z,18.85
2023-05-13T21:32:27.485Z,18.90
2023-05-13T21:34:56.127Z,18.85
2023-05-13T21:37:23.056Z,20.50
2023-05-13T21:39:50.288Z,19.80
2023-05-13T21:42:16.907Z,20.50
2023-05-13T21:44:44.328Z,21.02
2023-05-13T21:47:10.931Z,18.98
2023-05-13T21:49:38.259Z,20.13
2023-05-13T21:52:05.544Z,20.52
2023-05-13T21:54:32.953Z,19.63
2023-05-13T21:56:59.585Z,19.15
2023-05-13T21:59:26.998Z,19.05
2023-05-13T22:01:53.669Z,19.23
2023-05-13T22:04:20.888Z,19.13
2023-05-13T22:06:47.472Z,16.95
2023-05-13T22:09:14.752Z,17.67
2023-05-13T22:11:41.368Z,18.88
2023-05-13T22:14:08.614Z,18.98
2023-05-13T22:16:35.307Z,18.90
2023-05-13T22:19:04.550Z,18.35
2023-05-13T22:21:32.335Z,17.55
2023-05-13T22:23:59.770Z,19.08
2023-05-13T22:26:26.351Z,18.30
2023-05-13T22:28:53.691Z,18.65
2023-05-13T22:31:20.361Z,18.80
2023-05-13T22:33:47.651Z,19.02
2023-05-13T22:36:15.376Z,19.90
2023-05-13T22:38:42.946Z,19.85
2023-05-13T22:41:09.544Z,20.38
2023-05-13T22:43:36.787Z,20.35
2023-05-13T22:46:03.911Z,21.42
2023-05-13T22:48:31.195Z,21.52
2023-05-13T22:50:58.276Z,21.10
2023-05-13T22:53:25.833Z,21.75
2023-05-13T22:55:52.712Z,22.60
2023-05-13T22:58:23.112Z,22.00
2023-05-13T23:00:49.915Z,22.23
2023-05-13T23:03:17.511Z,23.08
2023-05-13T23:05:44.180Z,21.67
2023-05-13T23:08:11.531Z,23.30
2023-05-13T23:10:38.154Z,22.48
2023-05-13T23:13:06.036Z,23.38
2023-05-13T23:15:33.097Z,22.60
2023-05-13T23:18:00.419Z,22.63
2023-05-13T23:20:27.139Z,21.70
2023-05-13T23:22:55.281Z,23.20
2023-05-13T23:25:21.948Z,22.55
2023-05-13T23:27:50.540Z,22.77
2023-05-13T23:30:17.463Z,22.02
2023-05-13T23:32:44.920Z,22.48
2023-05-13T23:35:11.918Z,22.85
2023-05-13T23:37:39.260Z,22.92
2023-05-13T23:40:06.690Z,23.00
2023-05-13T23:42:33.941Z,23.13
2023-05-13T23:45:00.612Z,23.08
2023-05-13T23:47:27.981Z,23.50
2023-05-13T23:49:54.699Z,23.63
2023-05-13T23:52:21.947Z,23.13
2023-05-13T23:54:48.560Z,21.83
2023-05-13T23:57:15.859Z,21.25
2023-05-13T23:59:42.487Z,19.05
